Time;durP1;ratioP1;P1;durP2;ratioP2;P2;SDS_P1;SDS_P2;PMS_P1;PMS_P2;Temp;Humidity;BMP_temperature;BMP_pressure;BME280_temperature;BME280_humidity;BME280_pressure;Samples;Min_cycle;Max_cycle;Signal;HPM_P1;HPM_P2
2021/01/15 00:00:58;;;;;;;;;;;-2.80;99.90;;;-4.10;89.00;95649.47;10571747;28;2259;-79
2021/01/15 00:06:05;;;;;;;;;;;-3.00;99.90;;;-4.25;89.60;95651.31;10569973;28;2343;-81
2021/01/15 00:11:07;;;;;;;;;;;-3.00;99.90;;;-4.32;89.83;95642.56;10573872;28;2359;-80
2021/01/15 00:16:08;;;;;;;;;;;-3.10;99.90;;;-4.43;90.09;95644.66;10548866;28;2319;-78
2021/01/15 00:21:10;;;;;;;;;;;-2.90;99.90;;;-4.42;90.02;95651.53;10561724;28;2319;-80
2021/01/15 00:26:12;;;;;;;;;;;-3.20;99.90;;;-4.48;90.50;95640.94;10564693;28;2185;-79
2021/01/15 00:31:14;;;;;;;;;;;-2.90;99.90;;;-4.58;90.32;95648.28;10558560;28;2425;-79
2021/01/15 00:36:16;;;;;;;;;;;-2.70;99.90;;;-4.67;91.28;95643.13;10571114;28;2236;-79
2021/01/15 00:41:18;;;;;;;;;;;-2.70;99.90;;;-4.74;91.28;95646.66;10550910;28;2244;-79
2021/01/15 00:46:31;;;;;;;;;;;-2.90;99.90;;;-4.80;92.10;95642.16;10552349;28;2294;-79
2021/01/15 00:51:33;;;;;;;;;;;-3.10;99.90;;;-4.81;91.34;95651.81;10560033;28;2291;-81
2021/01/15 00:56:35;;;;;;;;;;;-2.80;99.90;;;-4.87;91.35;95652.56;10554081;28;2259;-78
2021/01/15 01:01:37;;;;;;;;;;;-3.30;99.90;;;-4.84;91.40;95640.88;10542379;28;2303;-80
2021/01/15 01:06:39;;;;;;;;;;;-3.00;99.90;;;-4.95;91.68;95657.88;10564402;28;2272;-84
2021/01/15 01:23:13;;;;;;;;;;;-4.10;99.90;;;-5.08;92.93;95650.66;10455817;28;2647;-82
2021/01/15 01:28:19;;;;;;;;;;;-3.40;99.90;;;-5.14;92.54;95645.31;10467638;28;1519;-85
2021/01/15 01:33:21;;;;;;;;;;;-2.80;99.90;;;-5.22;93.07;95643.56;10486356;28;964;-82
2021/01/15 01:38:23;;;;;;;;;;;-3.00;99.90;;;-5.23;92.79;95649.81;10456080;28;2320;-82
2021/01/15 01:43:24;;;;;;;;;;;-1.80;99.90;;;-5.23;93.04;95644.56;10453540;28;2501;-81
2021/01/15 01:48:26;;;;;;;;;;;-2.90;99.90;;;-5.25;92.14;95644.75;10526794;28;2327;-83
2021/01/15 01:53:28;;;;;;;;;;;-2.70;99.90;;;-5.23;92.75;95649.81;10558371;28;1983;-82
2021/01/15 01:58:30;;;;;;;;;;;-4.10;99.90;;;-5.26;93.07;95652.78;10544868;28;2363;-81
2021/01/15 02:03:32;;;;;;;;;;;-2.00;99.90;;;-5.27;92.74;95645.94;10572174;28;2267;-81
2021/01/15 02:08:34;;;;;;;;;;;-2.90;99.90;;;-5.27;91.88;95651.97;10554182;28;2153;-83
2021/01/15 02:13:36;;;;;;;;;;;-2.40;99.90;;;-5.28;92.73;95658.22;10566419;28;2334;-84
2021/01/15 02:18:38;;;;;;;;;;;-4.10;99.90;;;-5.27;91.55;95654.59;10570985;28;2244;-83
2021/01/15 02:23:40;;;;;;;;;;;-4.10;99.90;;;-5.33;91.41;95649.25;10562942;28;2379;-81
2021/01/15 02:28:42;;;;;;;;;;;-3.10;99.90;;;-5.32;92.33;95653.50;10572533;28;1709;-84
2021/01/15 02:33:43;;;;;;;;;;;-4.20;99.90;;;-5.49;91.67;95645.78;10579055;28;1925;-84
2021/01/15 02:38:45;;;;;;;;;;;-4.20;99.90;;;-5.47;92.59;95649.06;10579448;28;1883;-82
2021/01/15 02:43:47;;;;;;;;;;;-2.30;99.90;;;-5.47;92.38;95646.44;10575858;28;2443;-82
2021/01/15 02:48:49;;;;;;;;;;;-3.80;99.90;;;-5.43;91.75;95649.50;10554035;28;2487;-83
2021/01/15 02:53:51;;;;;;;;;;;-3.20;99.90;;;-5.47;92.46;95643.81;10578393;28;2485;-82
2021/01/15 02:58:53;;;;;;;;;;;-2.70;99.90;;;-5.45;92.55;95652.31;10574422;28;2535;-83
2021/01/15 03:03:55;;;;;;;;;;;-4.00;99.90;;;-5.54;91.43;95661.19;10581325;28;2398;-83
2021/01/15 03:08:57;;;;;;;;;;;-2.70;99.90;;;-5.61;91.44;95662.91;10582342;28;1794;-84
2021/01/15 03:13:58;;;;;;;;;;;-4.40;99.90;;;-5.58;92.50;95669.59;10560812;28;2490;-83
2021/01/15 03:19:04;;;;;;;;;;;-3.00;99.90;;;-5.66;92.17;95670.50;10569848;28;2479;-82
2021/01/15 03:24:06;;;;;;;;;;;-4.50;99.90;;;-5.67;92.70;95671.47;10570164;28;2165;-82
2021/01/15 03:29:13;;;;;;;;;;;-4.40;99.90;;;-5.68;91.59;95675.06;10578388;27;2542;-83
2021/01/15 03:34:15;;;;;;;;;;;-3.00;99.90;;;-5.70;91.60;95677.06;10593819;28;2993;-84
2021/01/15 03:39:16;;;;;;;;;;;-3.80;99.90;;;-5.68;92.43;95680.31;10575159;28;2391;-83
2021/01/15 03:44:18;;;;;;;;;;;-3.60;99.90;;;-5.73;91.80;95677.41;10590689;28;2748;-83
2021/01/15 03:49:20;;;;;;;;;;;-4.60;99.90;;;-5.69;92.59;95678.69;10577206;28;2067;-82
2021/01/15 03:54:22;;;;;;;;;;;-2.90;99.90;;;-5.71;91.80;95676.25;10571868;28;2578;-82
2021/01/15 03:59:23;;;;;;;;;;;-3.70;99.90;;;-5.83;93.04;95672.41;10558029;28;1891;-84
2021/01/15 04:04:25;;;;;;;;;;;-2.80;99.90;;;-5.80;92.60;95681.69;10554579;27;2356;-83
2021/01/15 04:09:27;;;;;;;;;;;-4.70;99.90;;;-5.81;92.00;95685.31;10602001;28;2099;-84
2021/01/15 04:14:29;;;;;;;;;;;-4.70;99.90;;;-5.79;92.06;95688.56;10565237;28;1771;-84
2021/01/15 04:19:31;;;;;;;;;;;-3.00;99.90;;;-5.87;92.35;95686.81;10570223;28;2565;-83
2021/01/15 04:24:33;;;;;;;;;;;-4.30;99.90;;;-5.87;92.23;95696.47;10552128;28;2438;-81
2021/01/15 04:29:35;;;;;;;;;;;-3.10;99.90;;;-5.86;93.40;95698.09;10543452;28;2514;-82
2021/01/15 04:34:36;;;;;;;;;;;-2.90;99.90;;;-5.90;93.03;95691.59;10556409;28;2398;-82
2021/01/15 04:39:38;;;;;;;;;;;-4.70;99.90;;;-5.88;93.38;95697.47;10527315;28;2565;-85
2021/01/15 04:44:40;;;;;;;;;;;-3.20;99.90;;;-6.00;92.59;95697.88;10543405;28;1948;-85
2021/01/15 04:49:42;;;;;;;;;;;-4.80;99.90;;;-6.04;93.00;95701.88;10553634;28;2498;-83
2021/01/15 04:54:43;;;;;;;;;;;-4.80;99.90;;;-5.97;93.64;95711.66;10544428;28;1902;-84
2021/01/15 04:59:45;;;;;;;;;;;-3.50;99.90;;;-5.97;92.81;95716.88;10533904;28;2063;-82
2021/01/15 05:04:47;;;;;;;;;;;-4.90;99.90;;;-6.05;93.56;95715.91;10543587;28;2465;-84
2021/01/15 05:09:49;;;;;;;;;;;-4.30;99.90;;;-6.01;92.94;95722.44;10531253;28;2544;-83
2021/01/15 05:14:51;;;;;;;;;;;-4.80;99.90;;;-6.09;93.60;95724.28;10536833;28;2529;-82
2021/01/15 05:19:53;;;;;;;;;;;-3.60;99.90;;;-6.14;92.75;95724.81;10537637;28;1989;-83
2021/01/15 05:24:54;;;;;;;;;;;-5.00;99.90;;;-6.05;93.26;95728.19;10554344;28;2198;-83
2021/01/15 05:29:57;;;;;;;;;;;-3.60;99.90;;;-5.93;92.68;95728.63;10542509;28;2395;-85
2021/01/15 05:34:59;;;;;;;;;;;-4.90;99.90;;;-6.03;93.36;95732.28;10544052;28;2513;-81
2021/01/15 05:40:04;;;;;;;;;;;-4.80;99.90;;;-6.15;93.51;95736.25;10559077;28;2397;-81
2021/01/15 05:45:06;;;;;;;;;;;-4.90;99.90;;;-6.13;93.05;95739.50;10549861;28;2603;-82
2021/01/15 05:50:07;;;;;;;;;;;-4.90;99.90;;;-6.13;93.82;95755.22;10565096;28;2528;-83
2021/01/15 05:55:09;;;;;;;;;;;-5.00;99.90;;;-6.14;92.43;95753.59;10567417;28;2925;-81
2021/01/15 06:00:12;;;;;;;;;;;-3.00;99.90;;;-6.18;92.58;95760.13;10566770;28;2843;-80
2021/01/15 06:05:13;;;;;;;;;;;-5.00;99.90;;;-6.26;93.27;95768.84;10572200;28;2348;-81
2021/01/15 06:10:15;;;;;;;;;;;-5.10;99.90;;;-6.23;93.45;95780.78;10557532;28;2837;-79
2021/01/15 06:15:17;;;;;;;;;;;-5.00;99.90;;;-6.12;93.84;95783.00;10563223;28;2423;-80
2021/01/15 06:20:19;;;;;;;;;;;-5.00;99.90;;;-6.27;94.38;95805.63;10557000;28;2762;-78
2021/01/15 06:25:21;;;;;;;;;;;-5.10;99.90;;;-6.31;94.90;95794.69;10549659;28;2118;-80
2021/01/15 06:30:23;;;;;;;;;;;-5.10;99.90;;;-6.13;95.67;95806.72;10568244;28;2950;-80
2021/01/15 06:35:25;;;;;;;;;;;-5.10;99.90;;;-6.06;94.45;95812.91;10574530;28;2462;-80
2021/01/15 06:40:26;;;;;;;;;;;-5.00;99.90;;;-6.05;95.66;95817.97;10576226;28;2363;-79
2021/01/15 06:45:28;;;;;;;;;;;-4.90;99.90;;;-5.91;95.71;95828.75;10602499;28;2459;-80
2021/01/15 06:50:30;;;;;;;;;;;-4.90;99.90;;;-5.94;94.47;95842.16;10588844;28;2425;-81
2021/01/15 06:55:32;;;;;;;;;;;-4.80;99.90;;;-5.90;94.98;95848.66;10614750;28;2347;-81
2021/01/15 07:00:34;;;;;;;;;;;-4.90;99.90;;;-5.71;95.11;95843.81;10589285;28;2419;-80
2021/01/15 07:05:36;;;;;;;;;;;-4.70;99.90;;;-5.55;95.07;95853.41;10586909;28;2581;-80
2021/01/15 07:10:38;;;;;;;;;;;-4.50;99.90;;;-5.78;93.64;95858.59;10549362;28;2524;-79
2021/01/15 07:15:40;;;;;;;;;;;-4.60;99.90;;;-5.67;94.45;95865.22;10536417;28;2497;-81
2021/01/15 07:20:42;;;;;;;;;;;-4.60;99.90;;;-5.61;94.23;95867.16;10561480;28;2347;-81
2021/01/15 07:25:45;;;;;;;;;;;-4.50;99.90;;;-5.71;93.45;95877.06;10560698;28;2339;-79
2021/01/15 07:30:51;;;;;;;;;;;-4.60;99.90;;;-5.57;94.02;95884.19;10556075;28;2427;-80
2021/01/15 07:35:55;;;;;;;;;;;-3.60;99.90;;;-5.68;93.87;95889.78;10562247;28;2398;-80
2021/01/15 07:41:03;;;;;;;;;;;-4.60;99.90;;;-5.84;93.82;95905.59;10553851;28;2049;-81
2021/01/15 07:46:06;;;;;;;;;;;-4.80;99.90;;;-5.80;94.79;95912.09;10552078;28;2488;-82
2021/01/15 07:51:11;;;;;;;;;;;-4.80;99.90;;;-5.61;94.33;95910.88;10548301;28;2550;-81
2021/01/15 07:56:13;;;;;;;;;;;-3.00;99.90;;;-5.62;93.85;95917.91;10553049;28;2566;-80
2021/01/15 08:01:21;;;;;;;;;;;-3.00;99.90;;;-5.43;93.39;95917.50;10557585;28;2339;-80
2021/01/15 08:06:29;;;;;;;;;;;-3.10;99.90;;;-5.28;92.76;95917.63;10537541;28;2415;-81
2021/01/15 08:11:31;;;;;;;;;;;-3.10;99.90;;;-5.04;91.92;95927.13;10537460;28;1983;-79
2021/01/15 08:16:33;;;;;;;;;;;-4.20;99.90;;;-4.92;91.45;95931.00;10561472;28;2424;-80
2021/01/15 08:21:37;;;;;;;;;;;-4.10;99.90;;;-4.86;90.91;95939.16;10550616;28;2431;-78
2021/01/15 08:26:42;;;;;;;;;;;-2.10;99.90;;;-4.73;91.72;95939.41;10560301;28;2047;-82
2021/01/15 08:31:50;;;;;;;;;;;-3.90;99.90;;;-4.63;91.02;95934.75;10551375;28;2555;-81
2021/01/15 08:36:55;;;;;;;;;;;-1.70;99.90;;;-4.61;89.71;95945.88;10549594;28;2470;-79
2021/01/15 08:54:11;;;;;;;;;;;-3.40;99.90;;;-4.74;88.62;95961.38;10415384;28;2016;-80
2021/01/15 09:06:44;;;;;;;;;;;;;;;;;;;;;
2021/01/15 09:12:12;;;;;;;;;;;-3.00;99.90;;;-4.64;89.71;95977.72;10561068;28;2367;-80
2021/01/15 09:17:14;;;;;;;;;;;-3.10;99.90;;;-4.59;88.31;95991.09;10543475;28;2355;-80
2021/01/15 09:22:17;;;;;;;;;;;-3.60;99.90;;;-4.60;87.33;95999.97;10565639;28;2449;-80
2021/01/15 09:27:19;;;;;;;;;;;-2.30;99.90;;;-4.14;87.81;96000.78;10555161;28;2406;-84
2021/01/15 09:38:23;;;;;;;;;;;-3.10;99.90;;;-4.25;86.95;96013.53;10579195;22;2341;-82
2021/01/15 09:43:26;;;;;;;;;;;-1.70;99.90;;;-4.05;86.66;96006.78;10577691;28;2675;-82
2021/01/15 09:48:28;;;;;;;;;;;-3.20;99.90;;;-4.01;86.25;96015.94;10589031;28;2202;-81
2021/01/15 09:53:35;;;;;;;;;;;-3.00;99.90;;;-4.17;86.45;96018.72;10607992;28;1847;-80
2021/01/15 09:58:39;;;;;;;;;;;-2.90;99.90;;;-4.25;87.12;96019.59;10603777;28;1878;-79
2021/01/15 10:03:42;;;;;;;;;;;-1.60;99.90;;;-4.22;86.42;96029.72;10602194;28;2140;-81
2021/01/15 10:08:50;;;;;;;;;;;-1.70;99.90;;;-3.92;85.52;96017.50;10600095;28;2170;-81
2021/01/15 10:14:00;;;;;;;;;;;-1.40;99.90;;;-3.62;84.22;96009.69;10585074;28;2330;-79
2021/01/15 10:19:28;;;;;;;;;;;-1.50;99.90;;;-3.74;84.39;96026.88;10593852;28;2318;-81
2021/01/15 10:24:42;;;;;;;;;;;-1.50;99.90;;;-3.91;84.79;96032.28;10600445;28;2333;-78
2021/01/15 10:29:55;;;;;;;;;;;-1.50;99.90;;;-3.71;85.16;96032.59;10599295;28;2452;-81
2021/01/15 10:34:57;;;;;;;;;;;-2.90;99.90;;;-3.46;84.56;96025.28;10601714;28;1711;-82
2021/01/15 10:40:05;;;;;;;;;;;-2.00;99.90;;;-3.15;83.78;96029.56;10594638;28;2245;-82
2021/01/15 10:45:07;;;;;;;;;;;-0.90;99.90;;;-2.70;81.38;96030.31;10604989;28;2226;-80
2021/01/15 10:50:17;;;;;;;;;;;-1.80;99.90;;;-2.94;81.91;96034.88;10611247;28;2442;-80
2021/01/15 10:55:19;;;;;;;;;;;-1.30;99.90;;;-2.67;81.72;96036.06;10607521;28;2333;-79
2021/01/15 11:00:21;;;;;;;;;;;-0.60;99.90;;;-2.68;81.83;96029.13;10599684;28;2337;-80
2021/01/15 11:05:23;;;;;;;;;;;-1.70;99.90;;;-2.97;82.25;96030.00;10605309;27;2360;-81
2021/01/15 11:10:25;;;;;;;;;;;-1.70;99.90;;;-3.27;84.12;96030.00;10593435;28;2165;-80
2021/01/15 11:15:27;;;;;;;;;;;-1.40;99.90;;;-3.11;83.49;96033.47;10606701;28;2088;-80
2021/01/15 11:20:29;;;;;;;;;;;-2.20;99.90;;;-3.07;83.14;96037.34;10597881;27;2765;-81
2021/01/15 11:25:34;;;;;;;;;;;-0.50;99.90;;;-3.10;82.73;96035.09;10600008;28;2328;-79
2021/01/15 11:30:36;;;;;;;;;;;-0.40;99.90;;;-3.32;83.09;96034.97;10610766;28;2282;-82
2021/01/15 11:35:41;;;;;;;;;;;0.30;99.90;;;-3.69;84.22;96027.16;10582405;28;2290;-81
2021/01/15 11:40:51;;;;;;;;;;;-1.40;99.90;;;-3.72;83.56;96032.78;10569509;28;2265;-81
2021/01/15 11:45:56;;;;;;;;;;;-2.50;99.90;;;-3.55;83.12;96021.13;10587673;28;2282;-82
2021/01/15 12:15:24;;;;;;;;;;;;;;;;;;;;;
2021/01/15 12:27:57;;;;;;;;;;;;;;;;;;;;;
2021/01/15 12:49:27;;;;;;;;;;;-1.20;99.90;;;-2.84;80.10;96018.84;10553753;28;2493;-81
2021/01/15 12:54:34;;;;;;;;;;;-1.80;99.90;;;-2.94;80.23;96018.28;10552734;28;2265;-82
2021/01/15 12:59:41;;;;;;;;;;;-1.00;99.90;;;-2.89;80.08;96026.44;10547168;28;2367;-82
2021/01/15 13:04:44;;;;;;;;;;;-1.80;99.90;;;-2.79;80.15;96019.91;10553808;28;2319;-80
2021/01/15 13:09:46;;;;;;;;;;;-1.80;99.90;;;-2.84;79.16;96026.72;10547672;28;2332;-81
2021/01/15 13:15:17;;;;;;;;;;;0.60;99.90;;;-2.73;80.79;96021.81;10529887;28;2310;-78
2021/01/15 13:31:56;;;;;;;;;;;0.00;99.90;;;-2.64;80.64;96034.84;10454046;28;2632;-80
2021/01/15 13:37:10;;;;;;;;;;;0.10;99.90;;;-2.62;81.37;96038.09;10531858;28;2096;-81
2021/01/15 13:42:25;;;;;;;;;;;-0.10;99.90;;;-2.70;81.53;96051.38;10522640;28;2235;-77
2021/01/15 13:47:43;;;;;;;;;;;-1.50;99.90;;;-2.73;82.24;96058.66;10518530;28;2159;-78
2021/01/15 13:52:52;;;;;;;;;;;-1.70;99.90;;;-2.96;83.31;96072.91;10500381;28;2309;-81
2021/01/15 13:58:03;;;;;;;;;;;-1.80;99.90;;;-2.89;83.91;96068.53;10514115;28;2329;-81
2021/01/15 14:03:08;;;;;;;;;;;-1.90;99.90;;;-2.98;83.86;96080.97;10514819;28;2313;-78
2021/01/15 14:08:11;;;;;;;;;;;-1.50;99.90;;;-3.09;84.24;96089.31;10510054;28;2294;-80
2021/01/15 14:18:46;;;;;;;;;;;-1.30;99.90;;;-3.05;84.46;96094.03;10431066;28;2460;-80
2021/01/15 14:24:01;;;;;;;;;;;-1.60;99.90;;;-3.19;84.11;96100.09;10498882;28;2087;-81
2021/01/15 14:29:17;;;;;;;;;;;-0.60;99.90;;;-3.26;84.79;96096.53;10498822;28;2243;-79
2021/01/15 14:34:22;;;;;;;;;;;-1.10;99.90;;;-3.31;83.71;96104.16;10498104;28;2418;-80
2021/01/15 14:39:25;;;;;;;;;;;-2.10;99.90;;;-3.33;83.74;96111.41;10493646;28;2261;-79
2021/01/15 14:44:37;;;;;;;;;;;-1.60;99.90;;;-3.37;83.76;96125.88;10508305;28;2393;-79
2021/01/15 14:49:39;;;;;;;;;;;-0.60;99.90;;;-3.38;83.93;96132.97;10512909;28;2022;-80
2021/01/15 14:54:55;;;;;;;;;;;-2.30;99.90;;;-3.29;84.28;96137.16;10512903;28;2226;-82
2021/01/15 15:00:29;;;;;;;;;;;-0.80;99.90;;;-3.22;83.63;96149.59;10384561;28;2503;-78
2021/01/15 15:17:06;;;;;;;;;;;0.60;99.90;;;-2.60;81.24;96171.16;10425067;28;2103;-80
2021/01/15 15:22:20;;;;;;;;;;;0.30;99.90;;;-2.51;80.88;96177.97;10418009;28;2379;-80
2021/01/15 15:27:26;;;;;;;;;;;-1.50;99.90;;;-2.42;81.16;96172.59;10424259;28;2281;-79
2021/01/15 15:32:31;;;;;;;;;;;-0.10;99.90;;;-2.42;81.45;96186.56;10425852;28;1701;-79
2021/01/15 15:37:33;;;;;;;;;;;-1.50;99.90;;;-2.44;81.18;96188.56;10481566;28;1953;-81
2021/01/15 15:42:35;;;;;;;;;;;-1.00;99.90;;;-2.40;81.68;96195.13;10500216;28;1466;-83
2021/01/15 15:47:37;;;;;;;;;;;-1.40;99.90;;;-2.46;81.30;96201.09;10491060;28;1767;-80
2021/01/15 15:52:41;;;;;;;;;;;-1.40;99.90;;;-2.58;82.50;96208.63;10511146;28;1548;-80
2021/01/15 15:57:43;;;;;;;;;;;-1.40;99.90;;;-2.60;82.74;96210.63;10523046;28;1909;-81
2021/01/15 16:02:45;;;;;;;;;;;0.20;99.90;;;-2.62;81.87;96217.88;10510712;28;1571;-79
2021/01/15 16:07:49;;;;;;;;;;;-1.50;99.90;;;-2.61;82.89;96219.53;10516815;28;1403;-82
2021/01/15 16:12:51;;;;;;;;;;;-1.50;99.90;;;-2.63;82.30;96232.03;10510305;28;1501;-82
2021/01/15 16:17:55;;;;;;;;;;;-1.50;99.90;;;-2.56;83.03;96225.06;10494881;28;1910;-79
2021/01/15 16:22:58;;;;;;;;;;;-1.50;99.90;;;-2.53;83.32;96231.78;10511141;28;1584;-82
2021/01/15 16:28:00;;;;;;;;;;;0.10;99.90;;;-2.46;82.85;96240.59;10521451;28;1636;-81
2021/01/15 16:33:09;;;;;;;;;;;0.30;99.90;;;-2.44;82.49;96254.38;10525256;28;1327;-82
2021/01/15 16:38:16;;;;;;;;;;;-1.40;99.90;;;-2.45;82.81;96263.28;10530925;28;1894;-84
2021/01/15 16:43:22;;;;;;;;;;;0.10;99.90;;;-2.48;82.55;96267.13;10520324;28;1949;-85
2021/01/15 16:48:26;;;;;;;;;;;0.10;99.90;;;-2.50;83.42;96252.47;10508360;28;1864;-84
2021/01/15 16:53:28;;;;;;;;;;;-1.50;99.90;;;-2.48;82.89;96268.94;10505048;28;2353;-87
2021/01/15 16:58:31;;;;;;;;;;;-1.40;99.90;;;-2.50;83.13;96271.72;10504203;28;2230;-83
2021/01/15 17:03:33;;;;;;;;;;;-1.10;99.90;;;-2.47;83.34;96281.91;10522674;28;2313;-85
2021/01/15 17:08:36;;;;;;;;;;;-1.40;99.90;;;-2.42;83.65;96285.78;10523947;28;2256;-79
2021/01/15 17:13:38;;;;;;;;;;;-1.40;99.90;;;-2.39;83.07;96286.25;10503561;28;2242;-85
2021/01/15 17:18:41;;;;;;;;;;;-1.40;99.90;;;-2.44;82.70;96296.50;10520429;28;2269;-83
2021/01/15 17:23:43;;;;;;;;;;;-1.40;99.90;;;-2.43;83.17;96297.31;10517331;28;1979;-82
2021/01/15 17:28:45;;;;;;;;;;;-0.50;99.90;;;-2.38;82.84;96297.63;10530516;28;2332;-84
2021/01/15 17:33:47;;;;;;;;;;;-1.30;99.90;;;-2.31;83.07;96294.06;10540944;28;2241;-82
2021/01/15 17:38:49;;;;;;;;;;;-1.20;99.90;;;-2.29;83.28;96304.41;10533445;28;2206;-84
2021/01/15 17:43:51;;;;;;;;;;;-1.20;99.90;;;-2.29;82.55;96313.16;10532415;28;2510;-82
2021/01/15 17:48:54;;;;;;;;;;;-1.20;99.90;;;-2.33;83.11;96316.31;10512929;28;2056;-81
2021/01/15 17:53:56;;;;;;;;;;;-1.20;99.90;;;-2.34;83.25;96326.03;10510532;28;2343;-85
2021/01/15 17:58:58;;;;;;;;;;;-0.20;99.90;;;-2.36;83.19;96330.66;10529580;28;2356;-82
2021/01/15 18:04:00;;;;;;;;;;;-1.30;99.90;;;-2.36;82.42;96333.28;10523374;28;2412;-83
2021/01/15 18:09:05;;;;;;;;;;;-0.90;99.90;;;-2.42;83.23;96339.25;10516787;28;1805;-83
2021/01/15 18:14:06;;;;;;;;;;;0.20;99.90;;;-2.40;83.02;96336.47;10539252;28;2081;-81
2021/01/15 18:19:08;;;;;;;;;;;-0.40;99.90;;;-2.37;82.98;96342.19;10537416;28;1890;-82
2021/01/15 18:24:10;;;;;;;;;;;-1.30;99.90;;;-2.31;83.45;96340.66;10523561;28;1904;-81
2021/01/15 18:29:14;;;;;;;;;;;0.90;99.90;;;-2.35;83.20;96342.03;10534920;28;2369;-81
2021/01/15 18:34:17;;;;;;;;;;;0.10;99.90;;;-2.35;83.21;96342.84;10525075;28;2324;-82
2021/01/15 18:39:19;;;;;;;;;;;0.30;99.90;;;-2.34;83.13;96354.19;10514625;28;2345;-81
2021/01/15 18:44:21;;;;;;;;;;;-1.30;99.90;;;-2.33;82.62;96353.19;10522875;28;1986;-81
2021/01/15 18:49:23;;;;;;;;;;;-1.30;99.90;;;-2.28;83.85;96367.47;10519562;28;2290;-81
2021/01/15 18:54:25;;;;;;;;;;;-1.30;99.90;;;-2.24;84.06;96366.09;10517496;28;2210;-81
2021/01/15 18:59:27;;;;;;;;;;;-1.20;99.90;;;-2.21;83.39;96368.38;10519480;28;2222;-80
2021/01/15 19:04:29;;;;;;;;;;;-0.10;99.90;;;-2.15;82.74;96376.56;10496375;28;2246;-82
2021/01/15 19:09:30;;;;;;;;;;;-1.10;99.90;;;-2.13;82.70;96378.00;10494629;28;2331;-83
2021/01/15 19:14:33;;;;;;;;;;;-1.10;99.90;;;-2.04;82.91;96378.75;10517563;28;2281;-82
2021/01/15 19:19:34;;;;;;;;;;;-1.00;99.90;;;-2.09;82.98;96375.84;10529093;28;2286;-81
2021/01/15 19:24:36;;;;;;;;;;;-1.10;99.90;;;-2.06;83.17;96383.38;10526181;28;2064;-80
2021/01/15 19:29:47;;;;;;;;;;;-1.00;99.90;;;-2.10;84.25;96390.84;10501812;28;2182;-82
2021/01/15 19:34:55;;;;;;;;;;;-0.70;99.90;;;-2.13;83.47;96387.72;10504120;28;2227;-81
2021/01/15 19:39:57;;;;;;;;;;;-1.10;99.90;;;-2.20;83.60;96385.81;10517855;28;2343;-82
2021/01/15 19:45:06;;;;;;;;;;;0.00;99.90;;;-2.30;83.95;96392.31;10513234;28;2242;-83
2021/01/15 19:50:09;;;;;;;;;;;0.20;99.90;;;-2.30;84.78;96401.03;10524125;28;2458;-79
2021/01/15 19:55:12;;;;;;;;;;;-0.30;99.90;;;-2.34;84.42;96405.03;10496695;28;2175;-83
2021/01/15 20:00:18;;;;;;;;;;;0.30;99.90;;;-2.39;85.35;96402.13;10492652;28;2203;-82
2021/01/15 20:05:24;;;;;;;;;;;0.30;99.90;;;-2.46;85.94;96401.19;10518190;28;2277;-83
2021/01/15 20:10:26;;;;;;;;;;;-1.50;99.90;;;-2.47;86.24;96402.19;10507864;28;2405;-82
2021/01/15 20:15:35;;;;;;;;;;;-1.40;99.90;;;-2.44;86.08;96409.72;10497542;28;2087;-83
2021/01/15 20:20:38;;;;;;;;;;;-0.20;99.90;;;-2.56;85.76;96405.88;10492021;22;2201;-78
2021/01/15 20:25:42;;;;;;;;;;;0.00;99.90;;;-2.46;85.94;96412.53;10383977;28;2256;-83
2021/01/15 20:30:44;;;;;;;;;;;-1.60;99.90;;;-2.52;86.61;96417.69;10411798;28;2384;-81
2021/01/15 20:35:47;;;;;;;;;;;0.80;99.90;;;-2.50;86.31;96418.31;10426246;28;1968;-80
2021/01/15 20:41:00;;;;;;;;;;;0.10;99.90;;;-2.51;86.41;96414.88;10427944;28;1304;-80
2021/01/15 20:46:07;;;;;;;;;;;0.00;99.90;;;-2.46;86.61;96427.50;10418107;28;1743;-79
2021/01/15 20:51:09;;;;;;;;;;;-1.00;99.90;;;-2.52;85.29;96425.59;10419123;28;1975;-81
2021/01/15 20:56:18;;;;;;;;;;;-1.40;99.90;;;-2.45;85.39;96422.06;10404259;28;1914;-82
2021/01/15 21:01:29;;;;;;;;;;;-1.40;99.90;;;-2.48;86.04;96434.78;10413537;28;1653;-81
2021/01/15 21:06:33;;;;;;;;;;;-0.80;99.90;;;-2.54;85.46;96432.84;10412943;28;1470;-80
2021/01/15 21:11:35;;;;;;;;;;;0.00;99.90;;;-2.57;85.76;96430.56;10474278;28;1530;-83
2021/01/15 21:16:44;;;;;;;;;;;-1.50;99.90;;;-2.53;85.35;96431.84;10473272;28;1906;-82
2021/01/15 21:21:56;;;;;;;;;;;-0.50;99.90;;;-2.63;85.56;96436.50;10462733;28;1684;-82
2021/01/15 21:26:58;;;;;;;;;;;-0.10;99.90;;;-2.59;85.24;96433.38;10470876;28;1527;-83
2021/01/15 21:32:18;;;;;;;;;;;;;;;;;;;;;
2021/01/15 21:37:25;;;;;;;;;;;-1.50;99.90;;;-2.55;85.47;96436.44;10467352;28;1955;-82
2021/01/15 21:42:27;;;;;;;;;;;-1.40;99.90;;;-2.61;85.15;96431.88;10466778;28;1173;-81
2021/01/15 21:47:29;;;;;;;;;;;-1.50;99.90;;;-2.68;86.50;96430.94;10469768;28;1697;-83
2021/01/15 21:52:31;;;;;;;;;;;-0.30;99.90;;;-2.65;87.01;96433.25;10475599;28;1449;-80
2021/01/15 21:57:33;;;;;;;;;;;-1.60;99.90;;;-2.64;86.01;96435.69;10488930;28;2330;-83
2021/01/15 22:02:45;;;;;;;;;;;-1.60;99.90;;;-2.59;86.55;96432.53;10486318;28;1480;-82
2021/01/15 22:08:06;;;;;;;;;;;-0.50;99.90;;;-2.60;86.96;96436.19;10484437;28;1379;-80
2021/01/15 22:13:08;;;;;;;;;;;-1.60;99.90;;;-2.64;86.12;96440.16;10475799;28;1679;-81
2021/01/15 22:18:10;;;;;;;;;;;-1.50;99.90;;;-2.64;86.80;96440.16;10468926;28;1907;-80
2021/01/15 22:23:12;;;;;;;;;;;-0.60;99.90;;;-2.70;86.35;96439.03;10482789;28;1432;-81
2021/01/15 22:28:14;;;;;;;;;;;0.30;99.90;;;-2.74;87.16;96440.34;10478278;28;1656;-79
2021/01/15 22:33:15;;;;;;;;;;;-1.60;99.90;;;-2.72;87.38;96439.22;10489301;28;1448;-82
2021/01/15 22:38:17;;;;;;;;;;;-1.60;99.90;;;-2.73;86.70;96436.75;10489567;28;1898;-81
2021/01/15 22:43:19;;;;;;;;;;;-1.60;99.90;;;-2.72;87.60;96436.56;10481718;28;1506;-80
2021/01/15 22:48:21;;;;;;;;;;;-1.70;99.90;;;-2.73;86.76;96444.66;10462512;28;1652;-81
2021/01/15 22:53:23;;;;;;;;;;;-1.70;99.90;;;-2.74;87.27;96441.16;10467755;28;1360;-81
2021/01/15 22:58:25;;;;;;;;;;;-0.60;99.90;;;-2.69;86.98;96442.47;10467713;28;2005;-80
2021/01/15 23:03:27;;;;;;;;;;;-0.90;99.90;;;-2.77;87.17;96446.81;10485984;28;1863;-79
2021/01/15 23:08:30;;;;;;;;;;;-1.10;99.90;;;-2.70;87.75;96446.91;10483653;28;1448;-80
2021/01/15 23:13:32;;;;;;;;;;;-1.70;99.90;;;-2.79;87.33;96448.78;10488349;28;1386;-81
2021/01/15 23:18:37;;;;;;;;;;;-1.70;99.90;;;-2.83;87.91;96436.97;10486855;28;1894;-81
2021/01/15 23:23:39;;;;;;;;;;;-1.80;99.90;;;-2.85;88.11;96438.16;10500497;28;1484;-82
2021/01/15 23:28:41;;;;;;;;;;;-1.80;99.90;;;-2.81;88.21;96437.59;10476981;28;1578;-86
2021/01/15 23:33:44;;;;;;;;;;;-1.80;99.90;;;-2.83;88.15;96436.16;10462418;28;2446;-84
2021/01/15 23:38:47;;;;;;;;;;;-1.80;99.90;;;-2.82;87.61;96440.41;10463777;28;1929;-84
2021/01/15 23:43:48;;;;;;;;;;;-1.60;99.90;;;-2.86;88.40;96439.97;10468078;28;2088;-85
2021/01/15 23:48:50;;;;;;;;;;;-1.80;99.90;;;-2.85;88.29;96444.22;10469404;28;2406;-85
2021/01/15 23:53:52;;;;;;;;;;;-1.80;99.90;;;-2.86;88.31;96445.22;10448797;28;2274;-83
2021/01/15 23:58:54;;;;;;;;;;;-1.70;99.90;;;-2.88;88.28;96447.19;10456987;28;1929;-84
